

Wyoming Mesonet
Water Resources Data System and State Climate Office
SEO WACNet, UW USACE UMRB, USDA-ARS, BLM
| Wind | Soil | |||||||||||||||||||
| Temp | Precip | Speed | Dir | Gust | Dir | Humidity | Pressure | Solar | Snow | Temperature (Deg F) | Moisture (%) | |||||||||
| Date Time (MST) | (F) | (in) | (mph) | (deg) | (mph) | (deg) | (%) | (Mbars) | (w/m^2) | (in) | 5cm | 10cm | 20cm | 50cm | 1m | 5cm | 10cm | 20cm | 50cm | 1m |
| 2026-08-30 00:00:00 | 62.13 | 0.00 | 3.77 | 276 | 26.22 | 323 | 59.7 | 839.0 | 0.0 | 0.1 | 71.96 | 77.90 | 78.44 | 75.02 | 71.06 | 0.3% | 11.1% | 9.0% | 11.8% | 8.9% |
| 2026-08-30 01:00:00 | 63.63 | 0.00 | 22.41 | 246 | 32.55 | 239 | 58.0 | 839.0 | 0.0 | 0.0 | 70.52 | 77.00 | 78.26 | 75.02 | 71.06 | 0.3% | 11.1% | 8.9% | 11.6% | 9.0% |
| 2026-08-30 02:00:00 | 62.96 | 0.00 | 19.93 | 243 | 30.06 | 248 | 58.4 | 839.0 | 0.0 | 0.1 | 69.80 | 76.10 | 77.90 | 75.20 | 70.88 | 0.4% | 10.9% | 8.8% | 11.6% | 9.0% |
| 2026-08-30 03:00:00 | 64.35 | 0.00 | 27.27 | 246 | 35.52 | 252 | 54.7 | 839.0 | 0.0 | 0.1 | 69.44 | 75.38 | 77.54 | 75.20 | 70.88 | 0.3% | 10.8% | 8.8% | 11.8% | 9.0% |
| 2026-08-30 04:00:00 | 63.16 | 0.00 | 22.79 | 243 | 36.53 | 245 | 57.2 | 839.0 | 0.0 | 0.0 | 69.26 | 74.84 | 77.18 | 75.20 | 70.88 | 0.3% | 10.7% | 8.9% | 11.6% | 9.0% |
| 2026-08-30 05:00:00 | 62.26 | 0.00 | 23.17 | 246 | 32.55 | 241 | 60.8 | 839.0 | 0.0 | 0.1 | 68.54 | 74.30 | 76.64 | 75.20 | 70.88 | 0.3% | 10.6% | 8.9% | 11.7% | 9.0% |
| 2026-08-30 06:00:00 | 61.14 | 0.00 | 20.80 | 249 | 28.32 | 248 | 64.3 | 839.0 | 35.8 | 0.1 | 67.82 | 73.76 | 76.28 | 75.20 | 71.06 | 0.3% | 10.4% | 8.8% | 11.6% | 8.9% |
| 2026-08-30 07:00:00 | 66.81 | 0.00 | 24.58 | 250 | 32.41 | 248 | 54.7 | 839.0 | 228.5 | 0.2 | 67.82 | 73.22 | 75.92 | 75.20 | 71.06 | 0.4% | 10.4% | 8.7% | 11.6% | 9.0% |
| 2026-08-30 08:00:00 | 66.67 | 0.00 | 21.21 | 251 | 30.69 | 250 | 52.5 | 839.0 | 198.4 | 0.2 | 69.80 | 72.86 | 75.56 | 75.02 | 71.06 | 0.4% | 10.3% | 8.6% | 11.6% | 9.0% |
| 2026-08-30 09:00:00 | 73.27 | 0.00 | 22.17 | 248 | 28.95 | 239 | 38.5 | 840.0 | 612.9 | 0.2 | 71.78 | 72.68 | 75.20 | 75.02 | 71.06 | 0.4% | 10.1% | 8.6% | 11.7% | 8.9% |
| 2026-08-30 10:00:00 | 76.75 | 0.00 | 16.74 | 259 | 28.81 | 240 | 31.5 | 840.0 | 744.3 | 0.3 | 77.36 | 72.86 | 74.84 | 75.02 | 71.06 | 0.4% | 10.3% | 8.5% | 11.7% | 8.9% |
| 2026-08-30 11:00:00 | 78.35 | 0.00 | 22.44 | 242 | 30.31 | 240 | 27.5 | 840.0 | 915.0 | 0.2 | 82.94 | 73.94 | 74.66 | 75.02 | 71.06 | 0.5% | 10.4% | 8.5% | 11.7% | 8.9% |
| 2026-08-30 12:00:00 | 81.27 | 0.00 | 29.24 | 259 | 35.90 | 256 | 21.4 | 839.0 | 998.0 | 0.1 | 87.62 | 75.38 | 74.66 | 74.84 | 71.06 | 0.6% | 10.5% | 8.5% | 11.9% | 8.9% |
| 2026-08-30 13:00:00 | 79.66 | 0.00 | 23.09 | 258 | 36.78 | 236 | 23.6 | 840.0 | 425.5 | 0.0 | 88.52 | 77.00 | 75.02 | 74.84 | 71.06 | 0.6% | 10.9% | 8.5% | 11.6% | 8.8% |
| 2026-08-30 14:00:00 | 77.67 | 0.00 | 20.58 | 281 | 40.24 | 269 | 25.5 | 840.0 | 350.2 | 0.0 | 87.62 | 78.44 | 75.38 | 74.66 | 71.06 | 0.5% | 11.0% | 8.7% | 11.5% | 9.0% |
| 2026-08-30 15:00:00 | 70.99 | 0.00 | 16.88 | 345 | 34.65 | 277 | 40.7 | 840.0 | 289.2 | 0.2 | 86.72 | 79.16 | 75.74 | 74.66 | 71.06 | 0.5% | 11.1% | 8.7% | 11.5% | 8.9% |
| 2026-08-30 16:00:00 | 74.10 | 0.00 | 3.84 | 326 | 28.81 | 49 | 34.1 | 840.0 | 516.8 | 0.2 | 86.18 | 79.52 | 76.28 | 74.66 | 71.06 | 0.5% | 11.1% | 8.8% | 11.8% | 9.0% |
| 2026-08-30 17:00:00 | 66.49 | 0.00 | 18.84 | 38 | 25.46 | 42 | 51.6 | 840.0 | 293.9 | 0.2 | 86.00 | 79.88 | 76.64 | 74.48 | 71.06 | 0.5% | 11.1% | 8.9% | 11.7% | 9.0% |
| 2026-08-30 18:00:00 | 65.05 | 0.00 | 10.01 | 84 | 20.62 | 46 | 55.0 | 840.0 | 110.0 | 0.2 | 83.30 | 80.06 | 77.00 | 74.48 | 71.06 | 0.5% | 11.1% | 8.9% | 11.4% | 8.9% |
| 2026-08-30 19:00:00 | 59.11 | 0.00 | 8.88 | 64 | 16.03 | 55 | 62.9 | 840.0 | 0.0 | 0.1 | 79.34 | 79.70 | 77.36 | 74.48 | 71.06 | 0.4% | 11.1% | 8.9% | 11.5% | 8.9% |
| 2026-08-30 20:00:00 | 56.64 | 0.00 | 8.75 | 36 | 11.55 | 66 | 69.8 | 841.0 | 0.0 | 0.1 | 75.38 | 78.98 | 77.36 | 74.48 | 71.06 | 0.4% | 11.0% | 9.0% | 11.4% | 8.9% |
| 2026-08-30 21:00:00 | 56.57 | 0.00 | 10.41 | 51 | 12.67 | 51 | 69.7 | 841.0 | 0.0 | 0.1 | 72.32 | 78.08 | 77.36 | 74.48 | 71.06 | 0.3% | 10.8% | 8.8% | 11.6% | 8.9% |
| 2026-08-30 22:00:00 | 54.81 | 0.00 | 9.08 | 52 | 10.56 | 51 | 70.2 | 841.0 | 0.0 | 0.0 | 69.80 | 77.00 | 77.36 | 74.66 | 71.06 | 0.4% | 10.7% | 8.8% | 11.6% | 9.0% |
| 2026-08-30 23:00:00 | 53.35 | 0.00 | 5.80 | 73 | 11.68 | 40 | 67.8 | 842.0 | 0.0 | -0.1 | 67.64 | 75.74 | 77.00 | 74.66 | 71.06 | 0.3% | 10.5% | 8.9% | 11.6% | 9.0% |